Lamont, Canada
Current Conditions -  °F | °C
As of 9:00 AM on Wednesday 22 Oct 2014 (Local Time) from CYED Reporting Station
Clear Clear  
Wind Chill: 34°   Ceiling: Unl
Heat Index: 39°   Visibility: 9mi
Dew Point: 34°   Wind: 8mph
Humidity: 81%   Direction: 160°SSE
Pressure: 29.66"   Gusts: NA
Location:  53.75°N, 112.78°W
Report Text: CYED 221500Z AUTO 16007KT 9SM CLR 04/01 A2966 RMK ICG PAST HRSLP067
Loading
Personal Weather Stations






























Interactive Weather Map
Tropical Storm Tracking
New forecast layout! Learn more

10-Day Weather Forecast

Advertisements
Track Severe Weather on mobile